LIRP/PSA METAR and TAF weather

Enter ICAO airport designator
Station Type Date Time Source
LIRP METAR 2020/01/20 21:45 UTC NOAA

LIRP 202145Z 08009KT CAVOK 09/M02 Q1039 TEMPO 07010G20KT


Station Type Date Time Source
LIRP Decoded METAR 2020/01/20 21:45 UTC NOAA

Pisa / S. Giusto, Italy (LIRP) 43-41N 010-23E 6M
Jan 20, 2020 - 04:45 PM EST / 2020.01.20 2145 UTC
Wind: from the E (080 degrees) at 10 MPH (9 KT):0
Visibility: greater than 7 mile(s):0
Temperature: 48 F (9 C)
Dew Point: 28 F (-2 C)
Relative Humidity: 45%
Pressure (altimeter): 30.68 in. Hg (1039 hPa)
ob: LIRP 202145Z 08009KT CAVOK 09/M02 Q1039 TEMPO 07010G20KT
cycle: 22

Station Type Date Time Source
LIRP TAF 2020/01/20 19:18 UTC NOAA

TAF
AMD LIRP 201900Z 2019/2118 07010KT 9999 SCT070
TEMPO 2018/2106 07015G25KT

Example: see airport list